Time;durP1;ratioP1;P1;durP2;ratioP2;P2;SDS_P1;SDS_P2;PMS_P1;PMS_P2;Temp;Humidity;BMP_temperature;BMP_pressure;BME280_temperature;BME280_humidity;BME280_pressure;Samples;Min_cycle;Max_cycle;Signal;HPM_P1;HPM_P2
2021/05/08 00:02:51;;;;;;;11.68;6.15;;;;;;;7.86;51.65;99001.89;262505;1100;114366;-78
2021/05/08 00:07:54;;;;;;;12.18;5.65;;;;;;;7.82;51.85;99011.78;262154;1104;114670;-75
2021/05/08 00:12:57;;;;;;;9.80;5.65;;;;;;;7.77;51.50;99005.00;263409;1100;114677;-78
2021/05/08 00:18:00;;;;;;;9.73;5.90;;;;;;;7.66;52.20;99015.30;262741;1105;114326;-82
2021/05/08 00:23:03;;;;;;;11.00;6.53;;;;;;;7.56;52.69;99021.05;263508;1099;114494;-80
2021/05/08 00:28:05;;;;;;;10.85;6.73;;;;;;;7.52;52.50;99021.28;263096;1104;114710;-76
2021/05/08 00:33:09;;;;;;;11.38;6.83;;;;;;;7.46;53.14;99016.28;262736;1100;114529;-76
2021/05/08 00:38:11;;;;;;;10.83;6.25;;;;;;;7.39;53.17;99026.32;263003;1104;114903;-76
2021/05/08 00:43:17;;;;;;;13.10;6.78;;;;;;;7.32;52.92;99038.15;263376;1099;114780;-77
2021/05/08 00:48:20;;;;;;;12.53;7.45;;;;;;;7.25;53.64;99042.03;263456;1104;114932;-73
2021/05/08 00:53:24;;;;;;;10.75;6.83;;;;;;;7.21;53.06;99045.76;262970;1100;114598;-74
2021/05/08 00:58:26;;;;;;;12.25;7.40;;;;;;;7.18;53.45;99059.99;262727;1104;114585;-75
2021/05/08 01:03:30;;;;;;;10.20;7.08;;;;;;;7.16;54.08;99053.90;262093;1100;114566;-75
2021/05/08 01:08:33;;;;;;;9.53;6.65;;;;;;;7.13;53.79;99066.42;262973;1104;114603;-82
2021/05/08 01:13:37;;;;;;;11.58;6.70;;;;;;;7.11;53.56;99069.16;262880;1100;114402;-80
2021/05/08 01:18:40;;;;;;;10.35;6.48;;;;;;;7.10;53.59;99070.09;262916;1104;114465;-74
2021/05/08 01:23:43;;;;;;;10.90;6.43;;;;;;;7.11;54.58;99085.89;262922;1100;114894;-74
2021/05/08 01:28:47;;;;;;;10.55;6.28;;;;;;;7.16;54.17;99088.30;263062;1104;114622;-76
2021/05/08 01:33:50;;;;;;;12.28;6.20;;;;;;;7.19;54.19;99093.45;262832;1100;114672;-80
2021/05/08 01:38:55;;;;;;;8.58;5.98;;;;;;;7.25;54.76;99100.26;262937;1104;114882;-74
2021/05/08 01:43:58;;;;;;;8.68;5.63;;;;;;;7.24;54.67;99106.49;263125;1099;114262;-80
2021/05/08 01:49:01;;;;;;;8.73;5.53;;;;;;;7.27;54.76;99104.55;262952;1104;114551;-79
2021/05/08 01:54:04;;;;;;;9.55;6.35;;;;;;;7.34;54.54;99107.77;263252;1100;114334;-79
2021/05/08 01:59:08;;;;;;;9.10;5.73;;;;;;;7.35;54.66;99106.83;262990;1100;114375;-79
2021/05/08 02:04:11;;;;;;;9.20;6.28;;;;;;;7.34;54.64;99110.42;262969;1099;114329;-75
2021/05/08 02:09:15;;;;;;;10.05;6.13;;;;;;;7.35;54.99;99120.06;263277;1104;114766;-77
2021/05/08 02:14:23;;;;;;;9.53;5.55;;;;;;;7.38;54.74;99127.87;262917;1100;114464;-80
2021/05/08 02:19:26;;;;;;;8.70;5.58;;;;;;;7.43;54.71;99125.84;263071;1103;114648;-80
2021/05/08 02:24:28;;;;;;;9.08;5.55;;;;;;;7.47;55.27;99132.73;262824;1100;114933;-79
2021/05/08 02:29:31;;;;;;;9.13;5.60;;;;;;;7.47;54.81;99137.14;263350;1104;114372;-79
2021/05/08 02:34:34;;;;;;;10.45;5.68;;;;;;;7.50;55.15;99140.50;263306;1100;114301;-82
2021/05/08 02:39:37;;;;;;;7.35;5.40;;;;;;;7.50;54.48;99142.30;263272;1104;115348;-84
2021/05/08 02:44:40;;;;;;;10.00;5.88;;;;;;;7.53;54.91;99152.74;263151;1099;114292;-82
2021/05/08 02:49:47;;;;;;;8.80;5.43;;;;;;;7.54;54.48;99155.34;263041;1104;114739;-81
2021/05/08 02:54:50;;;;;;;10.58;5.55;;;;;;;7.56;55.00;99158.75;263437;1100;114713;-82
2021/05/08 02:59:54;;;;;;;9.65;6.00;;;;;;;7.58;54.65;99171.94;263057;1104;114780;-83
2021/05/08 03:04:57;;;;;;;10.23;6.38;;;;;;;7.55;54.67;99182.67;262963;1099;114548;-83
2021/05/08 03:10:00;;;;;;;10.90;6.63;;;;;;;7.53;55.04;99177.43;263245;1104;114593;-81
2021/05/08 03:15:06;;;;;;;12.45;6.28;;;;;;;7.49;54.70;99173.22;263061;1100;114566;-81
2021/05/08 03:20:10;;;;;;;12.28;7.25;;;;;;;7.49;55.09;99178.52;262840;1105;114649;-82
2021/05/08 03:25:14;;;;;;;11.08;6.85;;;;;;;7.47;55.12;99203.34;262873;1100;114726;-82
2021/05/08 03:30:19;;;;;;;10.33;7.38;;;;;;;7.45;54.99;99203.42;263136;1104;114810;-82
2021/05/08 03:35:23;;;;;;;12.25;7.33;;;;;;;7.44;54.88;99195.53;262978;1101;114903;-81
2021/05/08 03:40:28;;;;;;;12.05;8.05;;;;;;;7.47;55.54;99208.63;262485;1105;114575;-78
2021/05/08 03:45:31;;;;;;;13.20;7.73;;;;;;;7.49;55.95;99226.17;263100;1099;115075;-76
2021/05/08 03:50:38;;;;;;;10.25;7.25;;;;;;;7.41;55.55;99214.23;263138;1104;114743;-79
2021/05/08 03:55:41;;;;;;;9.25;6.53;;;;;;;7.37;55.92;99218.82;262752;1100;114819;-76
2021/05/08 04:00:44;;;;;;;11.90;7.38;;;;;;;7.39;55.63;99224.88;262734;1104;114782;-77
2021/05/08 04:05:47;;;;;;;12.15;7.53;;;;;;;7.42;55.69;99235.34;262645;1100;114725;-77
2021/05/08 04:10:50;;;;;;;10.48;7.40;;;;;;;7.44;55.84;99246.73;262921;1104;114479;-77
2021/05/08 04:15:53;;;;;;;13.35;7.38;;;;;;;7.42;55.84;99259.16;262872;1100;114842;-78
2021/05/08 04:20:55;;;;;;;9.73;6.98;;;;;;;7.41;55.72;99270.69;262873;1104;114729;-77
2021/05/08 04:26:00;;;;;;;12.43;7.95;;;;;;;7.39;55.74;99275.19;263059;1098;114424;-77
2021/05/08 04:31:02;;;;;;;11.55;7.83;;;;;;;7.37;55.85;99278.83;263300;1104;114595;-82
2021/05/08 04:36:06;;;;;;;12.08;7.53;;;;;;;7.35;55.26;99281.55;263306;1100;114592;-82
2021/05/08 04:41:10;;;;;;;11.55;8.38;;;;;;;7.33;56.38;99284.25;263392;1104;115051;-81
2021/05/08 04:46:14;;;;;;;12.68;8.23;;;;;;;7.39;55.81;99290.22;263395;1099;114663;-81
2021/05/08 04:51:19;;;;;;;12.65;8.80;;;;;;;7.44;55.71;99299.69;262974;1104;114647;-75
2021/05/08 04:56:24;;;;;;;;;;;;;;;7.49;56.42;99299.47;263122;1100;114799;-81
2021/05/08 05:01:28;;;;;;;15.23;7.73;;;;;;;7.47;56.61;99299.55;263552;1104;101095;-85
2021/05/08 05:06:31;;;;;;;10.88;8.15;;;;;;;7.55;56.18;99307.99;262556;1100;114496;-84
2021/05/08 05:11:34;;;;;;;12.35;7.90;;;;;;;7.63;56.11;99314.73;263012;1104;114535;-80
2021/05/08 05:16:38;;;;;;;11.53;8.23;;;;;;;7.59;55.56;99309.56;262865;1100;114761;-80
2021/05/08 05:21:41;;;;;;;12.10;8.30;;;;;;;7.67;56.21;99318.95;263046;1104;114618;-83
2021/05/08 05:26:43;;;;;;;13.28;8.98;;;;;;;7.66;56.12;99328.69;263424;1100;114987;-78
2021/05/08 05:31:47;;;;;;;13.50;8.35;;;;;;;7.82;56.25;99340.31;262770;1104;114533;-80
2021/05/08 05:36:51;;;;;;;14.50;9.00;;;;;;;7.85;55.84;99341.97;263079;1100;114717;-81
2021/05/08 05:41:54;;;;;;;12.65;8.60;;;;;;;7.88;56.40;99338.29;262859;1104;114562;-81
2021/05/08 05:46:56;;;;;;;11.78;8.75;;;;;;;7.89;56.57;99340.03;263181;1100;114637;-78
2021/05/08 05:51:59;;;;;;;12.83;8.20;;;;;;;7.96;55.77;99350.27;263095;1104;115099;-77
2021/05/08 05:57:03;;;;;;;12.90;8.43;;;;;;;7.95;56.14;99347.70;263247;1099;115605;-81
2021/05/08 06:02:06;;;;;;;10.50;7.78;;;;;;;7.98;56.36;99355.48;263537;1104;114829;-76
2021/05/08 06:07:11;;;;;;;12.53;7.75;;;;;;;8.05;56.44;99351.65;263408;1100;114930;-82
2021/05/08 06:12:15;;;;;;;11.80;7.33;;;;;;;8.16;56.48;99351.99;262619;1105;114523;-80
2021/05/08 06:17:17;;;;;;;10.00;6.43;;;;;;;8.16;55.87;99357.30;262929;1100;114861;-79
2021/05/08 06:22:21;;;;;;;9.80;6.15;;;;;;;8.20;55.83;99350.05;263165;1104;114971;-81
2021/05/08 06:27:24;;;;;;;11.75;6.13;;;;;;;8.29;55.54;99346.98;263425;1100;114207;-82
2021/05/08 06:32:29;;;;;;;8.45;5.78;;;;;;;8.43;55.97;99357.81;263570;1104;114124;-80
2021/05/08 06:37:33;;;;;;;6.73;4.95;;;;;;;8.57;55.59;99358.94;262652;1100;114471;-84
2021/05/08 06:42:37;;;;;;;9.35;5.88;;;;;;;8.66;55.69;99362.00;262994;1104;114387;-88
2021/05/08 06:47:41;;;;;;;10.28;5.40;;;;;;;8.76;55.64;99360.62;263029;1099;114436;-84
2021/05/08 06:52:44;;;;;;;6.68;4.43;;;;;;;8.87;54.85;99364.53;262684;1105;114663;-84
2021/05/08 06:57:49;;;;;;;5.73;4.25;;;;;;;8.95;54.63;99365.00;262680;1102;114404;-85
2021/05/08 07:02:53;;;;;;;6.58;4.00;;;;;;;8.98;54.42;99354.23;262809;1101;114258;-86
2021/05/08 07:08:03;;;;;;;5.90;3.65;;;;;;;9.01;54.20;99359.38;263276;1104;114554;-82
2021/05/08 07:13:06;;;;;;;6.88;3.85;;;;;;;9.06;54.34;99369.77;263069;1099;114649;-80
2021/05/08 07:18:27;;;;;;;6.90;3.48;;;;;;;9.13;53.93;99364.05;263091;1099;114391;-90
2021/05/08 07:23:30;;;;;;;10.88;3.53;;;;;;;9.23;53.81;99365.30;263004;1104;114441;-85
2021/05/08 07:28:33;;;;;;;6.57;3.33;;;;;;;9.39;53.80;99351.24;262925;1100;115262;-88
2021/05/08 07:33:36;;;;;;;7.10;2.78;;;;;;;9.49;53.64;99355.14;262802;1104;114395;-88
2021/05/08 07:38:39;;;;;;;6.25;2.83;;;;;;;9.62;53.33;99368.64;262800;1104;114335;-83
2021/05/08 07:43:41;;;;;;;5.68;2.70;;;;;;;9.75;52.85;99363.52;262963;1100;115346;-81
2021/05/08 07:48:45;;;;;;;3.30;2.20;;;;;;;9.90;52.24;99365.36;261793;1104;115004;-84
2021/05/08 07:53:48;;;;;;;5.93;2.08;;;;;;;10.05;51.71;99358.34;263097;1100;115430;-83
2021/05/08 07:58:51;;;;;;;5.98;2.28;;;;;;;10.63;53.17;99357.77;263371;1104;114828;-83
2021/05/08 08:03:53;;;;;;;4.65;2.48;;;;;;;11.59;52.61;99364.55;263119;1100;114992;-79
2021/05/08 08:08:56;;;;;;;4.93;2.08;;;;;;;11.75;50.85;99364.45;263048;1104;114920;-81
2021/05/08 08:13:59;;;;;;;4.35;1.88;;;;;;;11.89;50.10;99358.30;263041;1097;115240;-82
2021/05/08 08:19:02;;;;;;;6.93;2.60;;;;;;;11.96;49.54;99348.98;263327;1100;115137;-79
2021/05/08 08:24:05;;;;;;;6.43;2.73;;;;;;;11.99;49.11;99346.09;263218;1100;114940;-80
2021/05/08 08:29:08;;;;;;;5.85;2.18;;;;;;;11.89;48.35;99342.29;262779;1105;114828;-82
2021/05/08 08:34:11;;;;;;;4.33;2.15;;;;;;;11.76;47.48;99350.19;263007;1101;114659;-79
2021/05/08 08:39:14;;;;;;;5.65;2.20;;;;;;;11.64;48.12;99364.27;262931;1104;115040;-82
2021/05/08 08:44:17;;;;;;;3.23;2.33;;;;;;;11.47;47.25;99376.80;262900;1099;114856;-82
2021/05/08 08:49:20;;;;;;;3.03;2.28;;;;;;;11.26;46.88;99375.43;262895;1104;114846;-82
2021/05/08 08:54:23;;;;;;;4.75;2.28;;;;;;;11.20;47.15;99376.64;263195;1100;114661;-83
2021/05/08 08:59:28;;;;;;;9.53;4.78;;;;;;;11.18;47.38;99380.37;263381;1104;114714;-83
2021/05/08 09:04:31;;;;;;;4.20;2.03;;;;;;;11.13;47.21;99381.47;262789;1100;114927;-83
2021/05/08 09:09:35;;;;;;;4.43;2.30;;;;;;;11.13;47.54;99389.46;262579;1105;114743;-83
2021/05/08 09:14:37;;;;;;;5.35;2.13;;;;;;;11.16;47.18;99392.91;263298;1099;114925;-83
2021/05/08 09:19:43;;;;;;;4.13;2.17;;;;;;;11.09;47.16;99390.59;261196;1104;114798;-83
2021/05/08 09:24:56;;;;;;;4.98;2.20;;;;;;;11.05;46.78;99381.08;262940;1099;115173;-83
2021/05/08 09:30:07;;;;;;;4.25;2.25;;;;;;;11.02;46.78;99389.23;262165;1104;114976;-84
2021/05/08 09:35:18;;;;;;;4.38;2.45;;;;;;;11.10;47.05;99384.31;263112;1100;114663;-82
2021/05/08 09:40:24;;;;;;;6.55;2.30;;;;;;;11.25;47.01;99393.23;263048;1104;115285;-87
2021/05/08 09:45:27;;;;;;;5.63;2.55;;;;;;;11.32;47.19;99399.91;263115;1100;114693;-87
2021/05/08 09:50:30;;;;;;;7.00;2.70;;;;;;;11.21;46.67;99390.81;262653;1104;114825;-84
2021/05/08 09:55:35;;;;;;;6.90;2.53;;;;;;;11.10;46.68;99384.31;263114;1100;114869;-86
2021/05/08 10:00:42;;;;;;;5.45;2.88;;;;;;;11.00;47.13;99390.27;262998;1104;115870;-85
2021/05/08 10:06:02;;;;;;;5.75;2.50;;;;;;;11.13;47.13;99378.80;262804;1102;115371;-87
2021/05/08 10:11:05;;;;;;;4.55;2.25;;;;;;;11.31;47.16;99376.00;262789;1105;114860;-83
2021/05/08 10:16:09;;;;;;;3.23;1.95;;;;;;;11.48;46.78;99381.20;263210;1100;114805;-83
2021/05/08 10:21:12;;;;;;;5.28;2.48;;;;;;;11.65;46.24;99395.30;263319;1104;114859;-83
2021/05/08 10:26:15;;;;;;;4.83;2.05;;;;;;;11.70;46.01;99374.55;262514;1101;115583;-86
2021/05/08 10:31:18;;;;;;;5.00;2.43;;;;;;;11.71;45.57;99366.45;263144;1097;115018;-87
2021/05/08 10:36:43;;;;;;;4.15;2.35;;;;;;;11.70;46.11;99380.74;262939;1100;114827;-84
2021/05/08 10:41:50;;;;;;;4.40;2.95;;;;;;;11.67;45.32;99378.26;263001;1104;114788;-84
2021/05/08 10:46:53;;;;;;;4.00;2.60;;;;;;;11.72;46.20;99380.63;263020;1100;114734;-83
2021/05/08 10:51:58;;;;;;;4.38;2.63;;;;;;;11.78;45.68;99380.27;262794;1104;114790;-83
2021/05/08 10:57:22;;;;;;;4.65;2.78;;;;;;;11.86;45.25;99371.84;263020;1098;114840;-82
2021/05/08 11:02:40;;;;;;;4.53;3.00;;;;;;;11.80;45.38;99373.89;263164;1104;115150;-85
2021/05/08 11:07:43;;;;;;;6.88;2.95;;;;;;;11.77;45.56;99378.56;263438;1104;114544;-84
2021/05/08 11:13:09;;;;;;;7.48;3.38;;;;;;;11.76;45.38;99382.19;263308;1104;114650;-84
2021/05/08 11:18:35;;;;;;;5.33;2.60;;;;;;;11.89;45.33;99387.63;263377;1099;114647;-83
2021/05/08 11:23:48;;;;;;;4.40;2.40;;;;;;;12.28;45.37;99377.13;263103;1100;115186;-86
2021/05/08 11:29:00;;;;;;;3.35;2.13;;;;;;;12.71;44.77;99366.37;263238;1104;114954;-86
2021/05/08 11:34:12;;;;;;;4.45;2.53;;;;;;;13.22;44.53;99363.85;263208;1100;114824;-85
2021/05/08 11:39:20;;;;;;;6.25;2.65;;;;;;;13.60;43.38;99362.22;262933;1104;115404;-86
2021/05/08 11:44:28;;;;;;;3.48;2.30;;;;;;;13.95;42.98;99360.59;262983;1099;114626;-80
2021/05/08 11:49:36;;;;;;;6.03;2.45;;;;;;;14.29;41.85;99343.94;263085;1104;114687;-75
2021/05/08 11:54:41;;;;;;;5.38;2.50;;;;;;;14.68;41.73;99363.47;262987;1100;114945;-75
2021/05/08 11:59:44;;;;;;;3.30;2.50;;;;;;;14.81;40.74;99343.69;262946;1104;115006;-81
2021/05/08 12:04:51;;;;;;;5.60;2.53;;;;;;;14.96;40.91;99344.36;262996;1099;115109;-82
2021/05/08 12:10:19;;;;;;;3.65;2.23;;;;;;;14.61;40.34;99347.84;263004;1104;114477;-79
2021/05/08 12:15:30;;;;;;;3.87;2.90;;;;;;;14.25;39.79;99339.78;262749;1100;114896;-74
2021/05/08 12:20:47;;;;;;;4.05;2.60;;;;;;;13.96;40.40;99358.80;262942;1104;115520;-75
2021/05/08 12:26:06;;;;;;;4.60;2.58;;;;;;;13.66;40.40;99351.10;262741;1100;114784;-74
2021/05/08 12:31:31;;;;;;;6.80;2.55;;;;;;;13.61;40.35;99348.73;262715;1104;115367;-74
2021/05/08 12:36:36;;;;;;;5.10;2.68;;;;;;;14.04;40.74;99337.69;263019;1100;115195;-75
2021/05/08 12:41:40;;;;;;;4.90;2.50;;;;;;;14.63;40.54;99327.14;262502;1105;115030;-73
2021/05/08 12:46:58;;;;;;;3.63;2.10;;;;;;;14.88;39.86;99317.30;262669;1100;115462;-75
2021/05/08 12:52:24;;;;;;;3.68;2.30;;;;;;;15.20;39.28;99332.75;263244;1104;114686;-75
2021/05/08 12:57:29;;;;;;;2.65;1.80;;;;;;;14.95;38.82;99323.90;263006;1100;115058;-76
2021/05/08 13:02:33;;;;;;;6.33;2.00;;;;;;;14.70;38.44;99332.89;262585;1104;115038;-74
2021/05/08 13:07:39;;;;;;;4.55;2.20;;;;;;;14.48;38.05;99328.25;262855;1100;115867;-79
2021/05/08 13:12:42;;;;;;;;;;;;;;;14.44;38.09;99329.45;262970;1104;115162;-78
2021/05/08 13:17:50;;;;;;;3.88;2.20;;;;;;;14.74;37.91;99321.01;262126;1100;103083;-74
2021/05/08 13:22:54;;;;;;;3.53;1.98;;;;;;;15.30;38.26;99313.15;262720;1105;114974;-75
2021/05/08 13:27:58;;;;;;;2.73;2.08;;;;;;;15.84;37.26;99319.72;263020;1099;114958;-76
2021/05/08 13:33:01;;;;;;;5.48;2.10;;;;;;;16.27;37.09;99306.40;262597;1105;114912;-80
2021/05/08 13:38:05;;;;;;;3.78;1.85;;;;;;;16.50;36.20;99317.92;262892;1100;114753;-80
2021/05/08 13:43:09;;;;;;;4.20;2.30;;;;;;;16.33;35.61;99316.62;262797;1104;115548;-75
2021/05/08 13:48:12;;;;;;;5.30;1.90;;;;;;;16.00;35.08;99304.11;262911;1100;114894;-76
2021/05/08 13:53:19;;;;;;;3.45;1.85;;;;;;;15.71;34.95;99302.88;262463;1105;115414;-75
2021/05/08 13:58:23;;;;;;;3.80;2.03;;;;;;;15.45;34.94;99303.05;262861;1099;114965;-76
2021/05/08 14:03:26;;;;;;;4.23;2.08;;;;;;;15.30;35.12;99313.15;262730;1104;115203;-75
2021/05/08 14:08:29;;;;;;;5.08;1.88;;;;;;;15.18;34.67;99310.55;262663;1100;115170;-79
2021/05/08 14:13:34;;;;;;;4.90;1.80;;;;;;;15.50;34.33;99300.88;262937;1104;115259;-76
2021/05/08 14:18:37;;;;;;;30.55;20.90;;;;;;;16.14;36.76;99283.35;262692;1100;114837;-74
2021/05/08 14:23:40;;;;;;;9.00;6.47;;;;;;;16.68;36.29;99294.08;262581;1105;115350;-80
2021/05/08 14:28:43;;;;;;;20.10;14.38;;;;;;;16.74;35.36;99290.89;262925;1100;115248;-74
2021/05/08 14:33:46;;;;;;;9.00;5.15;;;;;;;16.82;34.87;99286.73;261839;1100;115222;-74
2021/05/08 14:38:50;;;;;;;7.07;4.80;;;;;;;17.01;34.40;99292.24;262726;1100;204200;-74
2021/05/08 14:43:54;;;;;;;4.83;3.07;;;;;;;16.76;33.95;99288.94;262627;1105;114762;-74
2021/05/08 14:48:58;;;;;;;3.78;2.08;;;;;;;16.74;33.60;99290.89;262955;1100;114963;-75
2021/05/08 14:54:01;;;;;;;4.70;2.53;;;;;;;16.64;33.40;99295.29;262896;1104;115484;-80
2021/05/08 14:59:04;;;;;;;4.80;2.25;;;;;;;16.33;32.88;99297.81;262775;1100;114767;-74
2021/05/08 15:04:07;;;;;;;7.53;2.90;;;;;;;16.00;32.76;99304.11;263315;1104;115114;-75
2021/05/08 15:09:11;;;;;;;3.90;2.33;;;;;;;15.77;32.96;99308.62;262834;1100;115762;-74
2021/05/08 15:14:14;;;;;;;2.78;1.63;;;;;;;15.76;33.56;99301.55;263367;1104;114796;-80
2021/05/08 15:19:18;;;;;;;5.20;2.13;;;;;;;15.68;33.07;99305.80;261239;1100;114836;-79
2021/05/08 15:24:21;;;;;;;3.83;2.08;;;;;;;15.63;33.51;99298.09;263011;1104;115305;-79
2021/05/08 15:29:25;;;;;;;5.55;2.35;;;;;;;15.70;33.57;99293.98;262911;1099;115067;-78
2021/05/08 15:34:28;;;;;;;4.05;1.75;;;;;;;15.84;33.43;99295.56;263325;1104;114791;-77
2021/05/08 15:39:32;;;;;;;5.03;2.30;;;;;;;15.85;33.30;99300.80;263188;1100;114964;-76
2021/05/08 15:44:37;;;;;;;3.13;1.80;;;;;;;15.82;33.07;99301.04;262806;1104;114953;-77
2021/05/08 15:49:41;;;;;;;5.85;2.65;;;;;;;15.76;33.47;99306.04;262733;1099;115634;-77
2021/05/08 15:54:45;;;;;;;5.50;1.98;;;;;;;15.74;33.47;99305.33;263316;1104;114733;-79
2021/05/08 15:59:48;;;;;;;3.33;1.75;;;;;;;15.61;33.07;99298.20;263226;1100;114687;-79
2021/05/08 16:04:53;;;;;;;3.95;2.15;;;;;;;15.53;33.22;99305.16;262628;1104;114605;-79
2021/05/08 16:09:56;;;;;;;4.83;1.80;;;;;;;15.75;33.89;99294.45;262698;1100;114838;-78
2021/05/08 16:15:00;;;;;;;4.93;2.43;;;;;;;16.15;33.12;99302.02;263134;1104;115923;-78
2021/05/08 16:20:04;;;;;;;4.05;2.00;;;;;;;16.01;32.88;99300.44;263274;1099;114655;-75
2021/05/08 16:25:09;;;;;;;3.40;1.78;;;;;;;15.88;33.17;99301.55;263068;1104;114762;-74
2021/05/08 16:30:13;;;;;;;6.45;2.18;;;;;;;15.81;33.30;99302.03;262098;1099;115450;-74
2021/05/08 16:35:16;;;;;;;5.40;2.20;;;;;;;15.72;32.70;99309.95;263302;1105;114736;-79
2021/05/08 16:40:20;;;;;;;4.40;2.33;;;;;;;15.47;32.34;99302.95;262714;1100;115032;-74
2021/05/08 16:45:23;;;;;;;3.68;2.20;;;;;;;15.25;32.23;99306.42;262918;1104;114595;-79
2021/05/08 16:50:27;;;;;;;4.35;2.20;;;;;;;15.03;32.21;99304.55;263047;1100;115043;-74
2021/05/08 16:55:31;;;;;;;4.78;2.50;;;;;;;14.83;32.29;99306.05;262835;1105;114865;-80
2021/05/08 17:00:40;;;;;;;5.40;2.53;;;;;;;14.65;32.39;99317.17;262704;1099;114908;-74
2021/05/08 17:05:43;;;;;;;6.55;2.40;;;;;;;14.50;32.22;99320.98;262982;1104;114765;-74
2021/05/08 17:10:47;;;;;;;5.08;2.35;;;;;;;14.37;32.67;99325.52;263088;1100;114879;-74
2021/05/08 17:15:51;;;;;;;4.88;2.40;;;;;;;14.25;32.82;99318.37;262678;1104;114927;-74
2021/05/08 17:20:54;;;;;;;5.93;2.65;;;;;;;14.15;33.51;99321.70;262646;1099;114956;-80
2021/05/08 17:25:58;;;;;;;6.03;2.50;;;;;;;14.11;33.33;99314.86;263085;1104;114801;-75
2021/05/08 17:31:01;;;;;;;4.93;2.50;;;;;;;14.05;32.92;99325.16;263286;1100;114806;-75
2021/05/08 17:36:05;;;;;;;5.03;2.33;;;;;;;13.96;33.00;99327.54;262742;1104;114815;-74
2021/05/08 17:41:09;;;;;;;6.70;2.70;;;;;;;13.89;33.71;99336.09;262736;1100;114870;-73
2021/05/08 17:46:13;;;;;;;5.58;2.80;;;;;;;13.81;33.31;99335.78;263443;1104;115028;-74
2021/05/08 17:51:16;;;;;;;3.78;2.60;;;;;;;13.79;33.40;99335.91;262605;1105;114851;-74
2021/05/08 17:56:19;;;;;;;5.08;3.00;;;;;;;13.75;34.24;99338.89;262606;1105;114816;-79
2021/05/08 18:01:23;;;;;;;5.35;3.23;;;;;;;13.69;33.46;99337.52;262544;1100;115251;-80
2021/05/08 18:06:28;;;;;;;5.83;2.73;;;;;;;13.62;34.30;99337.09;262647;1104;115579;-75
2021/05/08 18:11:34;;;;;;;6.50;3.25;;;;;;;13.58;34.35;99348.09;262930;1100;115103;-78
2021/05/08 18:16:38;;;;;;;9.05;3.28;;;;;;;13.49;34.68;99347.77;262761;1104;114811;-78
2021/05/08 18:21:41;;;;;;;6.15;3.33;;;;;;;13.40;34.86;99351.07;262267;1104;114770;-74
2021/05/08 18:26:44;;;;;;;6.17;2.63;;;;;;;13.23;35.85;99362.03;262298;1104;114808;-76
2021/05/08 18:31:48;;;;;;;6.30;3.30;;;;;;;13.02;35.82;99365.19;262786;1104;114953;-77
2021/05/08 18:36:52;;;;;;;7.90;4.23;;;;;;;12.81;36.52;99363.95;262987;1100;115127;-79
2021/05/08 18:41:55;;;;;;;9.05;3.35;;;;;;;12.62;37.18;99366.11;262940;1104;114714;-80
2021/05/08 18:46:58;;;;;;;7.83;3.80;;;;;;;12.45;37.36;99370.72;262852;1100;115013;-74
2021/05/08 18:52:02;;;;;;;20.52;4.65;;;;;;;12.29;37.38;99373.50;262942;1104;115799;-74
2021/05/08 18:57:05;;;;;;;13.98;4.70;;;;;;;12.12;37.85;99380.87;262987;1100;116025;-77
2021/05/08 19:02:09;;;;;;;13.03;4.88;;;;;;;11.96;39.24;99371.17;262952;1105;115083;-78
2021/05/08 19:07:13;;;;;;;11.48;4.25;;;;;;;11.83;39.24;99365.70;263280;1099;114938;-78
2021/05/08 19:12:16;;;;;;;15.13;5.35;;;;;;;11.70;39.55;99380.74;263034;1104;115160;-78
2021/05/08 19:17:20;;;;;;;20.05;4.73;;;;;;;11.54;39.70;99388.80;262850;1101;114939;-74
2021/05/08 19:22:24;;;;;;;12.88;4.83;;;;;;;11.42;39.95;99391.38;262935;1104;115492;-74
2021/05/08 19:27:28;;;;;;;17.03;5.15;;;;;;;11.29;40.97;99385.91;262954;1100;115055;-79
2021/05/08 19:32:33;;;;;;;15.58;5.48;;;;;;;11.17;40.70;99390.14;263017;1104;114955;-80
2021/05/08 19:37:37;;;;;;;10.38;4.88;;;;;;;11.05;41.19;99391.73;262747;1100;115045;-73
2021/05/08 19:42:42;;;;;;;15.80;6.08;;;;;;;10.96;41.50;99399.39;262980;1104;115220;-78
2021/05/08 19:47:45;;;;;;;13.53;5.88;;;;;;;10.87;42.11;99398.13;263108;1100;116234;-77
2021/05/08 19:52:48;;;;;;;18.65;6.13;;;;;;;10.77;42.43;99399.60;263009;1104;115068;-77
2021/05/08 19:57:53;;;;;;;13.88;6.65;;;;;;;10.65;42.64;99401.14;262735;1101;115104;-74
2021/05/08 20:02:56;;;;;;;16.28;7.93;;;;;;;10.54;42.73;99400.90;262956;1104;115112;-78
2021/05/08 20:07:59;;;;;;;19.25;8.80;;;;;;;10.46;43.35;99409.31;262837;1100;115024;-80
2021/05/08 20:13:04;;;;;;;19.75;9.55;;;;;;;10.39;43.73;99410.57;262740;1105;115166;-75
2021/05/08 20:18:07;;;;;;;17.30;10.48;;;;;;;10.31;44.20;99420.79;262788;1100;115344;-77
2021/05/08 20:23:11;;;;;;;29.30;15.53;;;;;;;10.18;44.05;99405.45;262786;1104;115236;-78
2021/05/08 20:28:14;;;;;;;33.05;17.43;;;;;;;10.08;44.36;99404.23;262673;1100;115201;-77
2021/05/08 20:33:20;;;;;;;31.18;17.83;;;;;;;10.01;44.25;99412.63;262590;1105;115426;-73
2021/05/08 20:38:24;;;;;;;30.43;16.93;;;;;;;9.94;45.19;99425.39;262513;1100;115164;-73
2021/05/08 20:43:28;;;;;;;30.50;17.80;;;;;;;9.80;45.32;99422.61;263280;1104;115065;-78
2021/05/08 20:48:31;;;;;;;29.73;17.90;;;;;;;9.69;45.37;99413.41;262912;1100;114848;-72
2021/05/08 20:53:35;;;;;;;30.18;17.65;;;;;;;9.57;45.54;99414.03;262679;1105;114888;-78
2021/05/08 20:58:42;;;;;;;32.05;19.00;;;;;;;9.47;45.73;99420.77;262580;1100;114873;-78
2021/05/08 21:03:46;;;;;;;35.08;19.83;;;;;;;9.39;45.96;99412.34;263451;1104;114744;-73
2021/05/08 21:08:49;;;;;;;37.48;21.20;;;;;;;9.30;46.07;99418.96;263457;1100;115614;-76
2021/05/08 21:13:53;;;;;;;38.10;22.43;;;;;;;9.23;46.62;99421.06;262860;1104;114980;-76
2021/05/08 21:18:57;;;;;;;36.70;22.05;;;;;;;9.17;46.50;99421.41;262841;1100;114617;-71
2021/05/08 21:24:01;;;;;;;37.80;21.50;;;;;;;9.10;46.94;99425.27;262741;1100;114906;-72
2021/05/08 21:29:05;;;;;;;38.53;22.45;;;;;;;9.05;47.17;99427.31;263128;1100;114646;-78
2021/05/08 21:34:08;;;;;;;42.25;22.13;;;;;;;8.97;46.96;99421.53;262533;1101;114694;-77
2021/05/08 21:39:12;;;;;;;43.60;22.65;;;;;;;8.89;47.46;99424.55;263001;1100;114713;-79
2021/05/08 21:44:15;;;;;;;41.13;22.83;;;;;;;8.80;47.40;99419.70;263195;1104;115327;-80
2021/05/08 21:49:18;;;;;;;42.10;22.60;;;;;;;8.73;47.99;99423.59;263043;1100;114808;-81
2021/05/08 21:54:24;;;;;;;39.30;23.05;;;;;;;8.66;48.19;99423.03;263458;1100;114639;-79
2021/05/08 21:59:28;;;;;;;42.23;22.93;;;;;;;8.58;48.37;99419.01;263451;1099;114965;-80
2021/05/08 22:04:34;;;;;;;37.53;21.98;;;;;;;8.48;48.42;99418.58;263254;1104;114577;-74
2021/05/08 22:09:38;;;;;;;42.15;23.58;;;;;;;8.40;48.99;99421.60;263095;1101;115268;-73
2021/05/08 22:14:42;;;;;;;41.00;23.28;;;;;;;8.32;48.38;99422.84;263368;1104;114756;-78
2021/05/08 22:19:46;;;;;;;42.35;23.58;;;;;;;8.22;48.51;99430.36;262714;1101;114689;-78
2021/05/08 22:24:49;;;;;;;41.60;24.43;;;;;;;8.14;49.48;99428.07;262977;1104;115325;-74
2021/05/08 22:29:54;;;;;;;40.88;23.73;;;;;;;8.07;48.92;99418.68;263076;1100;114912;-73
2021/05/08 22:34:57;;;;;;;47.13;25.13;;;;;;;8.02;49.49;99432.16;263477;1104;114582;-77
2021/05/08 22:40:00;;;;;;;42.20;24.10;;;;;;;7.93;49.97;99437.86;262774;1100;114685;-76
2021/05/08 22:45:06;;;;;;;37.08;23.00;;;;;;;7.85;49.57;99439.15;263069;1104;115671;-76
2021/05/08 22:50:17;;;;;;;48.15;24.15;;;;;;;7.78;50.29;99439.41;263108;1100;115326;-76
2021/05/08 22:55:20;;;;;;;44.47;23.67;;;;;;;7.72;50.33;99439.67;263421;1104;114855;-78
2021/05/08 23:00:24;;;;;;;44.03;23.83;;;;;;;7.67;50.90;99441.66;262744;1100;114665;-74
2021/05/08 23:05:28;;;;;;;42.80;23.08;;;;;;;7.60;50.61;99440.20;263236;1104;114935;-72
2021/05/08 23:10:32;;;;;;;39.78;23.40;;;;;;;7.55;51.22;99435.11;263074;1100;114909;-74
2021/05/08 23:15:35;;;;;;;38.53;22.50;;;;;;;7.49;51.33;99430.08;263421;1104;115319;-79
2021/05/08 23:20:38;;;;;;;43.40;23.30;;;;;;;7.43;50.76;99432.98;263207;1099;114738;-79